Norton Hill, New York
Current Conditions -  °F | °C
As of 7:51 AM on Thursday 30 Oct 2014 (Local Time) from KALB Reporting Station
Broken Clouds Broken Clouds  
Wind Chill: 41°   Ceiling: 7000
Heat Index: 45°   Visibility: 10mi
Dew Point: 38°   Wind: 8mph
Humidity: 76%   Direction: 270°W
Pressure: 29.98"   Gusts: NA
Location:  42.4169°N, 74.0155°W
Report Text: KALB 301151Z 27007KT 10SM FEW030 SCT050 BKN070 07/03 A2998 RMK AO2 SLP153 BKN V SCT 70019 T00720033 10094 20072 53017
Loading
Personal Weather Stations






























Interactive Weather Map
Tropical Storm Tracking
New forecast layout! Learn more

10-Day Weather Forecast

Advertisements
Track Severe Weather on mobile